sensor_id;sensor_type;location;lat;lon;timestamp;P1;durP1;ratioP1;P2;durP2;ratioP2
19782;SDS011;10051;40.294;-3.754;2023-02-18T00:01:20;6.90;;;3.10;;
19782;SDS011;10051;40.294;-3.754;2023-02-18T00:03:47;6.80;;;2.70;;
19782;SDS011;10051;40.294;-3.754;2023-02-18T00:06:13;6.38;;;3.03;;
19782;SDS011;10051;40.294;-3.754;2023-02-18T00:08:41;5.13;;;2.80;;
19782;SDS011;10051;40.294;-3.754;2023-02-18T00:11:08;6.22;;;3.33;;
19782;SDS011;10051;40.294;-3.754;2023-02-18T00:13:34;7.38;;;3.17;;
19782;SDS011;10051;40.294;-3.754;2023-02-18T00:16:04;11.30;;;3.10;;
19782;SDS011;10051;40.294;-3.754;2023-02-18T00:18:32;9.23;;;3.13;;
19782;SDS011;10051;40.294;-3.754;2023-02-18T00:20:58;5.57;;;3.03;;
19782;SDS011;10051;40.294;-3.754;2023-02-18T00:23:24;7.93;;;3.25;;
19782;SDS011;10051;40.294;-3.754;2023-02-18T00:25:57;9.45;;;3.20;;
19782;SDS011;10051;40.294;-3.754;2023-02-18T00:28:24;5.95;;;3.05;;
19782;SDS011;10051;40.294;-3.754;2023-02-18T00:30:49;5.68;;;3.25;;
19782;SDS011;10051;40.294;-3.754;2023-02-18T00:33:15;7.50;;;3.30;;
19782;SDS011;10051;40.294;-3.754;2023-02-18T00:35:40;7.28;;;3.20;;
19782;SDS011;10051;40.294;-3.754;2023-02-18T00:38:06;8.63;;;4.22;;
19782;SDS011;10051;40.294;-3.754;2023-02-18T00:40:35;10.85;;;3.50;;
19782;SDS011;10051;40.294;-3.754;2023-02-18T00:43:02;11.50;;;3.63;;
19782;SDS011;10051;40.294;-3.754;2023-02-18T00:45:27;7.57;;;3.45;;
19782;SDS011;10051;40.294;-3.754;2023-02-18T00:47:53;11.20;;;4.47;;
19782;SDS011;10051;40.294;-3.754;2023-02-18T00:50:18;10.73;;;4.75;;
19782;SDS011;10051;40.294;-3.754;2023-02-18T00:52:44;16.35;;;5.63;;
19782;SDS011;10051;40.294;-3.754;2023-02-18T00:55:10;14.13;;;5.40;;
19782;SDS011;10051;40.294;-3.754;2023-02-18T00:57:35;13.93;;;5.45;;
19782;SDS011;10051;40.294;-3.754;2023-02-18T01:00:01;12.60;;;4.72;;
19782;SDS011;10051;40.294;-3.754;2023-02-18T01:02:29;9.90;;;4.15;;
19782;SDS011;10051;40.294;-3.754;2023-02-18T01:04:54;11.00;;;4.25;;
19782;SDS011;10051;40.294;-3.754;2023-02-18T01:07:20;10.30;;;4.20;;
19782;SDS011;10051;40.294;-3.754;2023-02-18T01:09:45;10.07;;;3.80;;
19782;SDS011;10051;40.294;-3.754;2023-02-18T01:12:14;11.45;;;3.50;;
19782;SDS011;10051;40.294;-3.754;2023-02-18T01:14:40;7.55;;;3.50;;
19782;SDS011;10051;40.294;-3.754;2023-02-18T01:17:05;9.88;;;3.63;;
19782;SDS011;10051;40.294;-3.754;2023-02-18T01:19:31;7.45;;;3.30;;
19782;SDS011;10051;40.294;-3.754;2023-02-18T01:21:57;6.50;;;3.45;;
19782;SDS011;10051;40.294;-3.754;2023-02-18T01:24:22;6.35;;;3.65;;
19782;SDS011;10051;40.294;-3.754;2023-02-18T01:26:48;9.48;;;3.60;;
19782;SDS011;10051;40.294;-3.754;2023-02-18T01:29:13;6.82;;;3.75;;
19782;SDS011;10051;40.294;-3.754;2023-02-18T01:31:39;6.63;;;3.55;;
19782;SDS011;10051;40.294;-3.754;2023-02-18T01:34:05;6.28;;;3.60;;
19782;SDS011;10051;40.294;-3.754;2023-02-18T01:36:30;6.55;;;3.63;;
19782;SDS011;10051;40.294;-3.754;2023-02-18T01:38:56;9.93;;;3.42;;
19782;SDS011;10051;40.294;-3.754;2023-02-18T01:41:22;7.07;;;3.55;;
19782;SDS011;10051;40.294;-3.754;2023-02-18T01:43:47;7.07;;;3.53;;
19782;SDS011;10051;40.294;-3.754;2023-02-18T01:51:20;7.40;;;3.60;;
19782;SDS011;10051;40.294;-3.754;2023-02-18T01:53:52;7.03;;;3.70;;
19782;SDS011;10051;40.294;-3.754;2023-02-18T01:56:27;9.02;;;3.80;;
19782;SDS011;10051;40.294;-3.754;2023-02-18T01:58:56;7.95;;;3.80;;
19782;SDS011;10051;40.294;-3.754;2023-02-18T02:01:24;6.43;;;3.70;;
19782;SDS011;10051;40.294;-3.754;2023-02-18T02:03:51;6.22;;;3.60;;
19782;SDS011;10051;40.294;-3.754;2023-02-18T02:06:18;5.97;;;3.30;;
19782;SDS011;10051;40.294;-3.754;2023-02-18T02:08:45;8.50;;;3.60;;
19782;SDS011;10051;40.294;-3.754;2023-02-18T02:16:41;9.75;;;3.70;;
19782;SDS011;10051;40.294;-3.754;2023-02-18T02:33:28;7.38;;;3.80;;
19782;SDS011;10051;40.294;-3.754;2023-02-18T02:41:30;6.80;;;3.70;;
19782;SDS011;10051;40.294;-3.754;2023-02-18T02:46:42;7.00;;;3.78;;
19782;SDS011;10051;40.294;-3.754;2023-02-18T02:49:54;10.10;;;3.70;;
19782;SDS011;10051;40.294;-3.754;2023-02-18T02:52:23;7.63;;;3.75;;
19782;SDS011;10051;40.294;-3.754;2023-02-18T02:54:54;8.00;;;3.95;;
19782;SDS011;10051;40.294;-3.754;2023-02-18T02:59:50;9.88;;;3.70;;
19782;SDS011;10051;40.294;-3.754;2023-02-18T03:02:37;9.40;;;4.35;;
19782;SDS011;10051;40.294;-3.754;2023-02-18T03:13:38;6.25;;;3.60;;
19782;SDS011;10051;40.294;-3.754;2023-02-18T03:16:18;5.78;;;3.20;;
19782;SDS011;10051;40.294;-3.754;2023-02-18T03:19:01;7.45;;;3.67;;
19782;SDS011;10051;40.294;-3.754;2023-02-18T03:21:31;6.40;;;3.60;;
19782;SDS011;10051;40.294;-3.754;2023-02-18T03:24:03;6.43;;;3.65;;
19782;SDS011;10051;40.294;-3.754;2023-02-18T03:26:35;13.32;;;4.50;;
19782;SDS011;10051;40.294;-3.754;2023-02-18T03:29:06;8.45;;;4.10;;
19782;SDS011;10051;40.294;-3.754;2023-02-18T03:31:35;10.65;;;3.83;;
19782;SDS011;10051;40.294;-3.754;2023-02-18T03:34:04;7.65;;;4.13;;
19782;SDS011;10051;40.294;-3.754;2023-02-18T03:36:35;7.97;;;4.05;;
19782;SDS011;10051;40.294;-3.754;2023-02-18T03:39:06;9.98;;;4.22;;
19782;SDS011;10051;40.294;-3.754;2023-02-18T03:41:34;9.48;;;3.95;;
19782;SDS011;10051;40.294;-3.754;2023-02-18T03:44:00;11.70;;;4.18;;
19782;SDS011;10051;40.294;-3.754;2023-02-18T03:46:29;8.18;;;4.03;;
19782;SDS011;10051;40.294;-3.754;2023-02-18T03:48:56;8.35;;;4.03;;
19782;SDS011;10051;40.294;-3.754;2023-02-18T03:51:21;8.40;;;4.03;;
19782;SDS011;10051;40.294;-3.754;2023-02-18T03:53:47;7.43;;;3.90;;
19782;SDS011;10051;40.294;-3.754;2023-02-18T03:56:14;8.30;;;4.00;;
19782;SDS011;10051;40.294;-3.754;2023-02-18T03:58:40;10.02;;;3.90;;
19782;SDS011;10051;40.294;-3.754;2023-02-18T04:01:05;6.68;;;3.60;;
19782;SDS011;10051;40.294;-3.754;2023-02-18T04:03:31;8.73;;;3.90;;
19782;SDS011;10051;40.294;-3.754;2023-02-18T04:05:57;6.88;;;3.63;;
19782;SDS011;10051;40.294;-3.754;2023-02-18T04:08:22;7.95;;;3.60;;
19782;SDS011;10051;40.294;-3.754;2023-02-18T04:10:48;9.20;;;4.00;;
19782;SDS011;10051;40.294;-3.754;2023-02-18T04:13:14;6.70;;;3.60;;
19782;SDS011;10051;40.294;-3.754;2023-02-18T04:15:39;11.43;;;3.55;;
19782;SDS011;10051;40.294;-3.754;2023-02-18T04:18:05;8.57;;;3.80;;
19782;SDS011;10051;40.294;-3.754;2023-02-18T04:20:31;9.10;;;4.03;;
19782;SDS011;10051;40.294;-3.754;2023-02-18T04:22:56;10.02;;;3.72;;
19782;SDS011;10051;40.294;-3.754;2023-02-18T04:25:22;6.72;;;3.65;;
19782;SDS011;10051;40.294;-3.754;2023-02-18T04:27:47;7.97;;;3.50;;
19782;SDS011;10051;40.294;-3.754;2023-02-18T04:30:13;8.38;;;3.75;;
19782;SDS011;10051;40.294;-3.754;2023-02-18T04:32:39;6.95;;;3.83;;
19782;SDS011;10051;40.294;-3.754;2023-02-18T04:35:04;6.40;;;3.53;;
19782;SDS011;10051;40.294;-3.754;2023-02-18T04:37:31;8.52;;;3.58;;
19782;SDS011;10051;40.294;-3.754;2023-02-18T04:39:56;5.45;;;3.38;;
19782;SDS011;10051;40.294;-3.754;2023-02-18T04:42:22;6.55;;;3.50;;
19782;SDS011;10051;40.294;-3.754;2023-02-18T04:44:47;8.10;;;3.70;;
19782;SDS011;10051;40.294;-3.754;2023-02-18T04:47:13;7.22;;;3.55;;
19782;SDS011;10051;40.294;-3.754;2023-02-18T04:49:40;8.13;;;3.83;;
19782;SDS011;10051;40.294;-3.754;2023-02-18T04:52:06;8.73;;;3.67;;
19782;SDS011;10051;40.294;-3.754;2023-02-18T04:54:32;8.15;;;3.70;;
19782;SDS011;10051;40.294;-3.754;2023-02-18T04:56:57;6.35;;;3.40;;
19782;SDS011;10051;40.294;-3.754;2023-02-18T04:59:23;8.32;;;3.83;;
19782;SDS011;10051;40.294;-3.754;2023-02-18T05:01:49;8.80;;;3.60;;
19782;SDS011;10051;40.294;-3.754;2023-02-18T05:04:14;8.48;;;3.40;;
19782;SDS011;10051;40.294;-3.754;2023-02-18T05:06:41;7.80;;;3.60;;
19782;SDS011;10051;40.294;-3.754;2023-02-18T05:09:08;6.57;;;3.45;;
19782;SDS011;10051;40.294;-3.754;2023-02-18T05:11:34;5.85;;;3.40;;
19782;SDS011;10051;40.294;-3.754;2023-02-18T05:14:00;6.93;;;3.80;;
19782;SDS011;10051;40.294;-3.754;2023-02-18T05:16:25;5.97;;;3.67;;
19782;SDS011;10051;40.294;-3.754;2023-02-18T05:18:51;7.93;;;3.90;;
19782;SDS011;10051;40.294;-3.754;2023-02-18T05:21:17;6.88;;;3.90;;
19782;SDS011;10051;40.294;-3.754;2023-02-18T05:23:42;10.32;;;3.85;;
19782;SDS011;10051;40.294;-3.754;2023-02-18T05:26:08;6.95;;;3.47;;
19782;SDS011;10051;40.294;-3.754;2023-02-18T05:28:34;13.10;;;3.55;;
19782;SDS011;10051;40.294;-3.754;2023-02-18T05:30:59;5.22;;;3.22;;
19782;SDS011;10051;40.294;-3.754;2023-02-18T05:33:25;6.80;;;3.50;;
19782;SDS011;10051;40.294;-3.754;2023-02-18T05:35:50;5.50;;;3.40;;
19782;SDS011;10051;40.294;-3.754;2023-02-18T05:38:16;7.18;;;3.33;;
19782;SDS011;10051;40.294;-3.754;2023-02-18T05:40:42;8.45;;;3.17;;
19782;SDS011;10051;40.294;-3.754;2023-02-18T05:43:07;8.30;;;3.55;;
19782;SDS011;10051;40.294;-3.754;2023-02-18T05:45:33;6.50;;;3.55;;
19782;SDS011;10051;40.294;-3.754;2023-02-18T05:47:59;6.25;;;3.40;;
19782;SDS011;10051;40.294;-3.754;2023-02-18T05:50:25;6.15;;;3.40;;
19782;SDS011;10051;40.294;-3.754;2023-02-18T05:52:50;5.93;;;3.40;;
19782;SDS011;10051;40.294;-3.754;2023-02-18T05:55:16;8.73;;;3.20;;
19782;SDS011;10051;40.294;-3.754;2023-02-18T05:57:41;6.22;;;3.50;;
19782;SDS011;10051;40.294;-3.754;2023-02-18T06:00:07;8.25;;;3.58;;
19782;SDS011;10051;40.294;-3.754;2023-02-18T06:02:34;8.60;;;3.90;;
19782;SDS011;10051;40.294;-3.754;2023-02-18T06:05:00;7.85;;;4.00;;
19782;SDS011;10051;40.294;-3.754;2023-02-18T06:07:26;8.05;;;3.80;;
19782;SDS011;10051;40.294;-3.754;2023-02-18T06:09:52;6.63;;;3.70;;
19782;SDS011;10051;40.294;-3.754;2023-02-18T06:12:18;7.68;;;3.80;;
19782;SDS011;10051;40.294;-3.754;2023-02-18T06:14:43;8.30;;;3.75;;
19782;SDS011;10051;40.294;-3.754;2023-02-18T06:17:10;6.15;;;3.50;;
19782;SDS011;10051;40.294;-3.754;2023-02-18T06:19:36;8.02;;;4.07;;
19782;SDS011;10051;40.294;-3.754;2023-02-18T06:22:02;7.00;;;3.90;;
19782;SDS011;10051;40.294;-3.754;2023-02-18T06:24:28;10.68;;;3.85;;
19782;SDS011;10051;40.294;-3.754;2023-02-18T06:26:54;7.57;;;3.97;;
19782;SDS011;10051;40.294;-3.754;2023-02-18T06:29:20;7.35;;;3.80;;
19782;SDS011;10051;40.294;-3.754;2023-02-18T06:31:45;10.32;;;4.30;;
19782;SDS011;10051;40.294;-3.754;2023-02-18T06:34:11;6.90;;;3.80;;
19782;SDS011;10051;40.294;-3.754;2023-02-18T06:36:37;10.75;;;4.32;;
19782;SDS011;10051;40.294;-3.754;2023-02-18T06:39:03;9.38;;;4.43;;
19782;SDS011;10051;40.294;-3.754;2023-02-18T06:41:29;8.82;;;3.88;;
19782;SDS011;10051;40.294;-3.754;2023-02-18T06:43:55;10.00;;;4.20;;
19782;SDS011;10051;40.294;-3.754;2023-02-18T06:46:21;7.57;;;4.03;;
19782;SDS011;10051;40.294;-3.754;2023-02-18T06:48:46;8.75;;;4.40;;
19782;SDS011;10051;40.294;-3.754;2023-02-18T06:51:12;7.72;;;4.18;;
19782;SDS011;10051;40.294;-3.754;2023-02-18T06:53:40;7.47;;;4.03;;
19782;SDS011;10051;40.294;-3.754;2023-02-18T06:56:06;11.70;;;4.40;;
19782;SDS011;10051;40.294;-3.754;2023-02-18T06:58:32;8.60;;;4.03;;
19782;SDS011;10051;40.294;-3.754;2023-02-18T07:00:57;7.73;;;3.90;;
19782;SDS011;10051;40.294;-3.754;2023-02-18T07:03:23;11.73;;;3.97;;
19782;SDS011;10051;40.294;-3.754;2023-02-18T07:05:49;13.05;;;4.30;;
19782;SDS011;10051;40.294;-3.754;2023-02-18T07:08:14;6.35;;;3.95;;
19782;SDS011;10051;40.294;-3.754;2023-02-18T07:10:40;12.90;;;4.10;;
19782;SDS011;10051;40.294;-3.754;2023-02-18T07:13:06;8.75;;;4.50;;
19782;SDS011;10051;40.294;-3.754;2023-02-18T07:15:32;9.48;;;4.35;;
19782;SDS011;10051;40.294;-3.754;2023-02-18T07:17:58;9.18;;;4.53;;
19782;SDS011;10051;40.294;-3.754;2023-02-18T07:20:24;7.95;;;3.85;;
19782;SDS011;10051;40.294;-3.754;2023-02-18T07:22:50;9.75;;;3.78;;
19782;SDS011;10051;40.294;-3.754;2023-02-18T07:25:16;7.70;;;3.87;;
19782;SDS011;10051;40.294;-3.754;2023-02-18T07:27:42;12.60;;;4.03;;
19782;SDS011;10051;40.294;-3.754;2023-02-18T07:30:08;8.75;;;3.88;;
19782;SDS011;10051;40.294;-3.754;2023-02-18T07:32:34;6.45;;;3.95;;
19782;SDS011;10051;40.294;-3.754;2023-02-18T07:35:00;8.90;;;3.72;;
19782;SDS011;10051;40.294;-3.754;2023-02-18T07:37:26;7.57;;;3.70;;
19782;SDS011;10051;40.294;-3.754;2023-02-18T07:39:52;7.63;;;3.95;;
19782;SDS011;10051;40.294;-3.754;2023-02-18T07:42:18;7.75;;;3.38;;
19782;SDS011;10051;40.294;-3.754;2023-02-18T07:44:43;8.48;;;4.10;;
19782;SDS011;10051;40.294;-3.754;2023-02-18T07:47:09;11.50;;;3.85;;
19782;SDS011;10051;40.294;-3.754;2023-02-18T07:49:38;10.15;;;3.88;;
19782;SDS011;10051;40.294;-3.754;2023-02-18T07:52:04;9.73;;;3.80;;
19782;SDS011;10051;40.294;-3.754;2023-02-18T07:54:30;9.07;;;3.63;;
19782;SDS011;10051;40.294;-3.754;2023-02-18T07:56:55;11.18;;;3.80;;
19782;SDS011;10051;40.294;-3.754;2023-02-18T07:59:21;6.88;;;3.55;;
19782;SDS011;10051;40.294;-3.754;2023-02-18T08:01:47;8.15;;;3.72;;
19782;SDS011;10051;40.294;-3.754;2023-02-18T08:04:12;10.40;;;3.50;;
19782;SDS011;10051;40.294;-3.754;2023-02-18T08:06:40;8.88;;;3.60;;
19782;SDS011;10051;40.294;-3.754;2023-02-18T08:09:10;6.82;;;3.38;;
19782;SDS011;10051;40.294;-3.754;2023-02-18T08:11:37;8.32;;;3.58;;
19782;SDS011;10051;40.294;-3.754;2023-02-18T08:14:02;6.80;;;3.50;;
19782;SDS011;10051;40.294;-3.754;2023-02-18T08:16:28;9.00;;;3.60;;
19782;SDS011;10051;40.294;-3.754;2023-02-18T08:18:54;8.80;;;3.60;;
19782;SDS011;10051;40.294;-3.754;2023-02-18T08:21:20;8.98;;;4.13;;
19782;SDS011;10051;40.294;-3.754;2023-02-18T08:23:47;7.15;;;3.63;;
19782;SDS011;10051;40.294;-3.754;2023-02-18T08:26:13;5.97;;;3.53;;
19782;SDS011;10051;40.294;-3.754;2023-02-18T08:28:39;11.20;;;4.10;;
19782;SDS011;10051;40.294;-3.754;2023-02-18T08:31:04;5.85;;;3.47;;
19782;SDS011;10051;40.294;-3.754;2023-02-18T08:33:30;8.55;;;3.58;;
19782;SDS011;10051;40.294;-3.754;2023-02-18T08:35:56;8.23;;;4.10;;
19782;SDS011;10051;40.294;-3.754;2023-02-18T08:38:23;8.82;;;3.90;;
19782;SDS011;10051;40.294;-3.754;2023-02-18T08:40:50;8.32;;;3.65;;
19782;SDS011;10051;40.294;-3.754;2023-02-18T08:43:16;8.73;;;3.83;;
19782;SDS011;10051;40.294;-3.754;2023-02-18T08:45:42;10.93;;;3.42;;
19782;SDS011;10051;40.294;-3.754;2023-02-18T08:48:10;11.02;;;3.97;;
19782;SDS011;10051;40.294;-3.754;2023-02-18T08:50:37;6.20;;;3.65;;
19782;SDS011;10051;40.294;-3.754;2023-02-18T08:53:03;11.82;;;3.78;;
19782;SDS011;10051;40.294;-3.754;2023-02-18T08:55:30;8.38;;;3.58;;
19782;SDS011;10051;40.294;-3.754;2023-02-18T08:57:56;10.23;;;3.60;;
19782;SDS011;10051;40.294;-3.754;2023-02-18T09:00:22;6.95;;;3.60;;
19782;SDS011;10051;40.294;-3.754;2023-02-18T09:02:48;8.20;;;3.83;;
19782;SDS011;10051;40.294;-3.754;2023-02-18T09:05:13;10.07;;;4.15;;
19782;SDS011;10051;40.294;-3.754;2023-02-18T09:07:39;9.30;;;3.55;;
19782;SDS011;10051;40.294;-3.754;2023-02-18T09:10:05;8.60;;;3.90;;
19782;SDS011;10051;40.294;-3.754;2023-02-18T09:12:32;8.05;;;3.70;;
19782;SDS011;10051;40.294;-3.754;2023-02-18T09:14:58;10.23;;;4.03;;
19782;SDS011;10051;40.294;-3.754;2023-02-18T09:17:24;14.07;;;3.60;;
19782;SDS011;10051;40.294;-3.754;2023-02-18T09:19:51;11.90;;;3.50;;
19782;SDS011;10051;40.294;-3.754;2023-02-18T09:22:17;8.95;;;3.55;;
19782;SDS011;10051;40.294;-3.754;2023-02-18T09:24:43;8.35;;;3.60;;
19782;SDS011;10051;40.294;-3.754;2023-02-18T09:27:09;9.98;;;4.18;;
19782;SDS011;10051;40.294;-3.754;2023-02-18T09:29:37;7.78;;;3.90;;
19782;SDS011;10051;40.294;-3.754;2023-02-18T09:32:04;8.13;;;3.80;;
19782;SDS011;10051;40.294;-3.754;2023-02-18T09:34:30;9.43;;;4.05;;
19782;SDS011;10051;40.294;-3.754;2023-02-18T09:36:56;8.57;;;4.10;;
19782;SDS011;10051;40.294;-3.754;2023-02-18T09:39:21;13.00;;;4.68;;
19782;SDS011;10051;40.294;-3.754;2023-02-18T09:41:51;10.75;;;4.63;;
19782;SDS011;10051;40.294;-3.754;2023-02-18T09:44:30;10.40;;;3.95;;
19782;SDS011;10051;40.294;-3.754;2023-02-18T09:49:37;10.50;;;4.43;;
19782;SDS011;10051;40.294;-3.754;2023-02-18T09:54:36;10.27;;;4.47;;
19782;SDS011;10051;40.294;-3.754;2023-02-18T09:57:02;9.40;;;5.03;;
19782;SDS011;10051;40.294;-3.754;2023-02-18T09:59:31;11.52;;;4.75;;
19782;SDS011;10051;40.294;-3.754;2023-02-18T10:01:57;12.07;;;4.18;;
19782;SDS011;10051;40.294;-3.754;2023-02-18T10:04:26;9.00;;;4.45;;
19782;SDS011;10051;40.294;-3.754;2023-02-18T10:06:56;9.77;;;4.30;;
19782;SDS011;10051;40.294;-3.754;2023-02-18T10:09:30;8.93;;;4.28;;
19782;SDS011;10051;40.294;-3.754;2023-02-18T10:12:07;11.43;;;4.90;;
19782;SDS011;10051;40.294;-3.754;2023-02-18T10:14:38;8.50;;;4.20;;
19782;SDS011;10051;40.294;-3.754;2023-02-18T10:17:04;8.75;;;4.18;;
19782;SDS011;10051;40.294;-3.754;2023-02-18T10:19:32;9.52;;;3.60;;
19782;SDS011;10051;40.294;-3.754;2023-02-18T10:22:03;9.13;;;3.80;;
19782;SDS011;10051;40.294;-3.754;2023-02-18T10:24:35;7.93;;;3.75;;
19782;SDS011;10051;40.294;-3.754;2023-02-18T10:27:05;9.48;;;3.72;;
19782;SDS011;10051;40.294;-3.754;2023-02-18T10:29:32;6.53;;;3.75;;
19782;SDS011;10051;40.294;-3.754;2023-02-18T10:32:20;10.40;;;3.55;;
19782;SDS011;10051;40.294;-3.754;2023-02-18T10:43:37;9.13;;;3.55;;
19782;SDS011;10051;40.294;-3.754;2023-02-18T10:51:55;11.02;;;3.80;;
19782;SDS011;10051;40.294;-3.754;2023-02-18T10:54:46;7.22;;;3.20;;
19782;SDS011;10051;40.294;-3.754;2023-02-18T10:57:25;9.95;;;3.60;;
19782;SDS011;10051;40.294;-3.754;2023-02-18T11:00:14;9.60;;;3.95;;
19782;SDS011;10051;40.294;-3.754;2023-02-18T11:03:10;7.75;;;3.20;;
19782;SDS011;10051;40.294;-3.754;2023-02-18T11:05:41;7.20;;;3.22;;
19782;SDS011;10051;40.294;-3.754;2023-02-18T11:08:09;7.60;;;3.03;;
19782;SDS011;10051;40.294;-3.754;2023-02-18T11:10:40;5.78;;;3.15;;
19782;SDS011;10051;40.294;-3.754;2023-02-18T11:13:08;8.52;;;3.30;;
19782;SDS011;10051;40.294;-3.754;2023-02-18T11:15:36;6.43;;;3.28;;
19782;SDS011;10051;40.294;-3.754;2023-02-18T11:18:13;5.72;;;3.10;;
19782;SDS011;10051;40.294;-3.754;2023-02-18T11:20:54;6.47;;;3.10;;
19782;SDS011;10051;40.294;-3.754;2023-02-18T11:23:22;9.63;;;4.00;;
19782;SDS011;10051;40.294;-3.754;2023-02-18T11:25:53;7.38;;;3.67;;
19782;SDS011;10051;40.294;-3.754;2023-02-18T11:28:29;9.60;;;3.83;;
19782;SDS011;10051;40.294;-3.754;2023-02-18T11:31:03;10.63;;;3.95;;
19782;SDS011;10051;40.294;-3.754;2023-02-18T11:33:33;9.10;;;3.83;;
19782;SDS011;10051;40.294;-3.754;2023-02-18T11:36:16;6.60;;;3.40;;
19782;SDS011;10051;40.294;-3.754;2023-02-18T11:41:30;8.65;;;3.40;;
19782;SDS011;10051;40.294;-3.754;2023-02-18T11:44:03;8.45;;;2.90;;
19782;SDS011;10051;40.294;-3.754;2023-02-18T11:46:34;8.27;;;3.20;;
19782;SDS011;10051;40.294;-3.754;2023-02-18T11:49:09;11.75;;;3.72;;
19782;SDS011;10051;40.294;-3.754;2023-02-18T11:51:45;8.70;;;3.90;;
19782;SDS011;10051;40.294;-3.754;2023-02-18T11:54:46;10.27;;;4.20;;
19782;SDS011;10051;40.294;-3.754;2023-02-18T11:57:11;7.80;;;4.30;;
19782;SDS011;10051;40.294;-3.754;2023-02-18T11:59:39;15.35;;;3.30;;
19782;SDS011;10051;40.294;-3.754;2023-02-18T12:07:14;7.40;;;2.90;;
19782;SDS011;10051;40.294;-3.754;2023-02-18T12:09:48;10.05;;;3.20;;
19782;SDS011;10051;40.294;-3.754;2023-02-18T12:12:24;6.32;;;2.80;;
19782;SDS011;10051;40.294;-3.754;2023-02-18T12:14:53;5.93;;;2.60;;
19782;SDS011;10051;40.294;-3.754;2023-02-18T12:17:45;7.50;;;2.90;;
19782;SDS011;10051;40.294;-3.754;2023-02-18T12:25:55;9.38;;;2.95;;
19782;SDS011;10051;40.294;-3.754;2023-02-18T12:28:31;5.32;;;2.22;;
19782;SDS011;10051;40.294;-3.754;2023-02-18T12:36:55;9.35;;;2.70;;
19782;SDS011;10051;40.294;-3.754;2023-02-18T12:42:26;5.32;;;2.28;;
19782;SDS011;10051;40.294;-3.754;2023-02-18T12:51:10;5.30;;;2.30;;
19782;SDS011;10051;40.294;-3.754;2023-02-18T12:59:17;4.28;;;2.00;;
19782;SDS011;10051;40.294;-3.754;2023-02-18T13:13:41;9.05;;;2.80;;
19782;SDS011;10051;40.294;-3.754;2023-02-18T13:16:31;5.57;;;2.40;;
19782;SDS011;10051;40.294;-3.754;2023-02-18T13:19:00;12.27;;;2.58;;
19782;SDS011;10051;40.294;-3.754;2023-02-18T13:21:38;5.40;;;2.58;;
19782;SDS011;10051;40.294;-3.754;2023-02-18T13:24:06;7.20;;;2.60;;
19782;SDS011;10051;40.294;-3.754;2023-02-18T13:26:37;8.23;;;2.50;;
19782;SDS011;10051;40.294;-3.754;2023-02-18T13:31:46;7.50;;;2.25;;
19782;SDS011;10051;40.294;-3.754;2023-02-18T13:34:32;11.35;;;2.40;;
19782;SDS011;10051;40.294;-3.754;2023-02-18T13:39:36;11.18;;;2.70;;
19782;SDS011;10051;40.294;-3.754;2023-02-18T13:50:28;6.43;;;2.78;;
19782;SDS011;10051;40.294;-3.754;2023-02-18T13:52:58;6.68;;;2.80;;
19782;SDS011;10051;40.294;-3.754;2023-02-18T13:58:16;7.75;;;2.60;;
19782;SDS011;10051;40.294;-3.754;2023-02-18T14:00:50;9.32;;;2.38;;
19782;SDS011;10051;40.294;-3.754;2023-02-18T14:05:55;7.60;;;2.80;;
19782;SDS011;10051;40.294;-3.754;2023-02-18T14:08:36;7.32;;;2.70;;
19782;SDS011;10051;40.294;-3.754;2023-02-18T14:13:46;5.50;;;2.40;;
19782;SDS011;10051;40.294;-3.754;2023-02-18T14:16:17;7.95;;;2.80;;
19782;SDS011;10051;40.294;-3.754;2023-02-18T14:26:34;9.88;;;3.08;;
19782;SDS011;10051;40.294;-3.754;2023-02-18T14:29:08;10.82;;;2.63;;
19782;SDS011;10051;40.294;-3.754;2023-02-18T14:31:45;6.60;;;2.70;;
19782;SDS011;10051;40.294;-3.754;2023-02-18T14:39:47;8.48;;;2.58;;
19782;SDS011;10051;40.294;-3.754;2023-02-18T14:42:49;11.60;;;2.40;;
19782;SDS011;10051;40.294;-3.754;2023-02-18T14:45:39;10.05;;;2.40;;
19782;SDS011;10051;40.294;-3.754;2023-02-18T14:50:55;8.05;;;2.28;;
19782;SDS011;10051;40.294;-3.754;2023-02-18T14:53:24;6.88;;;3.00;;
19782;SDS011;10051;40.294;-3.754;2023-02-18T14:55:58;9.55;;;2.65;;
19782;SDS011;10051;40.294;-3.754;2023-02-18T15:00:54;6.57;;;2.35;;
19782;SDS011;10051;40.294;-3.754;2023-02-18T15:03:19;9.48;;;2.40;;
19782;SDS011;10051;40.294;-3.754;2023-02-18T15:05:47;10.52;;;2.45;;
19782;SDS011;10051;40.294;-3.754;2023-02-18T15:08:22;9.20;;;2.17;;
19782;SDS011;10051;40.294;-3.754;2023-02-18T15:11:05;11.43;;;2.40;;
19782;SDS011;10051;40.294;-3.754;2023-02-18T15:13:33;5.68;;;2.10;;
19782;SDS011;10051;40.294;-3.754;2023-02-18T15:16:05;5.97;;;2.15;;
19782;SDS011;10051;40.294;-3.754;2023-02-18T15:18:40;7.38;;;2.30;;
19782;SDS011;10051;40.294;-3.754;2023-02-18T15:21:19;10.95;;;2.42;;
19782;SDS011;10051;40.294;-3.754;2023-02-18T15:23:50;7.30;;;2.22;;
19782;SDS011;10051;40.294;-3.754;2023-02-18T15:26:16;9.77;;;2.30;;
19782;SDS011;10051;40.294;-3.754;2023-02-18T15:28:58;8.68;;;2.20;;
19782;SDS011;10051;40.294;-3.754;2023-02-18T15:31:27;7.47;;;2.15;;
19782;SDS011;10051;40.294;-3.754;2023-02-18T15:33:57;7.25;;;1.80;;
19782;SDS011;10051;40.294;-3.754;2023-02-18T15:36:24;12.88;;;2.60;;
19782;SDS011;10051;40.294;-3.754;2023-02-18T15:38:50;9.60;;;2.40;;
19782;SDS011;10051;40.294;-3.754;2023-02-18T15:41:17;9.43;;;2.65;;
19782;SDS011;10051;40.294;-3.754;2023-02-18T15:43:52;7.53;;;2.20;;
19782;SDS011;10051;40.294;-3.754;2023-02-18T15:46:19;9.00;;;2.15;;
19782;SDS011;10051;40.294;-3.754;2023-02-18T15:48:48;8.57;;;2.58;;
19782;SDS011;10051;40.294;-3.754;2023-02-18T15:51:48;9.30;;;2.05;;
19782;SDS011;10051;40.294;-3.754;2023-02-18T15:54:14;8.10;;;2.00;;
19782;SDS011;10051;40.294;-3.754;2023-02-18T15:56:43;5.20;;;2.03;;
19782;SDS011;10051;40.294;-3.754;2023-02-18T16:04:39;7.53;;;1.95;;
19782;SDS011;10051;40.294;-3.754;2023-02-18T16:12:51;12.63;;;3.55;;
19782;SDS011;10051;40.294;-3.754;2023-02-18T16:15:24;9.68;;;2.70;;
19782;SDS011;10051;40.294;-3.754;2023-02-18T16:17:53;8.63;;;2.60;;
19782;SDS011;10051;40.294;-3.754;2023-02-18T16:20:36;8.80;;;2.15;;
19782;SDS011;10051;40.294;-3.754;2023-02-18T16:23:07;7.45;;;2.00;;
19782;SDS011;10051;40.294;-3.754;2023-02-18T16:25:43;8.82;;;3.00;;
19782;SDS011;10051;40.294;-3.754;2023-02-18T16:28:21;11.75;;;2.35;;
19782;SDS011;10051;40.294;-3.754;2023-02-18T16:30:48;12.98;;;2.80;;
19782;SDS011;10051;40.294;-3.754;2023-02-18T16:33:14;11.65;;;4.28;;
19782;SDS011;10051;40.294;-3.754;2023-02-18T16:35:40;11.30;;;4.30;;
19782;SDS011;10051;40.294;-3.754;2023-02-18T16:38:09;15.40;;;4.25;;
19782;SDS011;10051;40.294;-3.754;2023-02-18T16:40:40;10.95;;;2.80;;
19782;SDS011;10051;40.294;-3.754;2023-02-18T16:43:13;7.60;;;2.70;;
19782;SDS011;10051;40.294;-3.754;2023-02-18T16:45:55;7.47;;;3.20;;
19782;SDS011;10051;40.294;-3.754;2023-02-18T16:48:41;6.28;;;2.70;;
19782;SDS011;10051;40.294;-3.754;2023-02-18T16:51:10;11.15;;;2.70;;
19782;SDS011;10051;40.294;-3.754;2023-02-18T16:53:38;10.45;;;4.05;;
19782;SDS011;10051;40.294;-3.754;2023-02-18T16:56:05;11.23;;;4.63;;
19782;SDS011;10051;40.294;-3.754;2023-02-18T16:58:37;13.15;;;5.15;;
19782;SDS011;10051;40.294;-3.754;2023-02-18T17:01:02;9.73;;;4.25;;
19782;SDS011;10051;40.294;-3.754;2023-02-18T17:03:28;12.63;;;4.38;;
19782;SDS011;10051;40.294;-3.754;2023-02-18T17:05:54;12.25;;;5.22;;
19782;SDS011;10051;40.294;-3.754;2023-02-18T17:08:20;14.93;;;5.38;;
19782;SDS011;10051;40.294;-3.754;2023-02-18T17:10:49;17.48;;;7.30;;
19782;SDS011;10051;40.294;-3.754;2023-02-18T17:13:18;16.20;;;6.57;;
19782;SDS011;10051;40.294;-3.754;2023-02-18T17:15:46;11.38;;;4.78;;
19782;SDS011;10051;40.294;-3.754;2023-02-18T17:18:14;11.38;;;4.43;;
19782;SDS011;10051;40.294;-3.754;2023-02-18T17:20:39;7.43;;;3.70;;
19782;SDS011;10051;40.294;-3.754;2023-02-18T17:23:05;11.02;;;3.70;;